Terminal Aerodrome Forecast
Issued by NWS

Home | Current Version | Previous Version | Text Only | Print | Product List | Glossary On
Versions: 1 2 3 4 5 6 7 8 9 10 11 12 13 14 15 16
270
FTUS46 KSTO 240539
TAFRDD
TAF
KRDD 240539Z 2406/2506 15011KT P6SM -RA OVC040
     FM241300 15020G32KT 4SM -RA OVC015
     FM242200 18010G20KT 4SM -SHRA BR OVC007=

USA.gov is the U.S. government's official web portal to all federal, state and local government web resources and services.